Flight Track Log - Related Links

Times and Time Zones

All times are in EDT time to prevent confusion due to time zone crossing. See the UAL906 flight status page for this flight to view local times or setup timezone preferences in your user account.

Time Position Orientation Groundspeed Altitude Reporting Facility
EDT Latitude Longitude Course Direction KTS MPH feet Rate Location/Type
Mon 06:56:16 AM 50.0460 8.5690 202° Southwest  Level FlightAware ADS-B
Mon 06:59:35 AM 50.0450 8.5690 180° South 15 17 31 Level FlightAware ADS-B
Mon 07:00:03 AM 50.0450 8.5680 270° West 18 21 38 Level FlightAware ADS-B
Mon 07:00:59 AM 50.0430 8.5680 180° South 20 23 40 Level FlightAware ADS-B
Mon 07:01:39 AM 50.0420 8.5670 213° Southwest 30 35 43 Level FlightAware ADS-B
Mon 07:02:05 AM 50.0420 8.5640 270° West 15 17 45 Level FlightAware ADS-B
Mon 07:02:17 AM 50.0410 8.5630 213° Southwest 34 39 47 Level FlightAware ADS-B
Mon 07:02:43 AM 50.0410 8.5610 270° West 33 38 48 Level FlightAware ADS-B
Mon 07:03:04 AM 50.0400 8.5590 232° Southwest 16 18 50 Level FlightAware ADS-B
Mon 07:03:34 AM 50.0400 8.5560 270° West 26 30 52 Level FlightAware ADS-B
Mon 07:04:02 AM 50.0390 8.5540 232° Southwest 27 31 55 Level FlightAware ADS-B
Mon 07:04:30 AM 50.0390 8.5520 270° West 31 36 58 Level FlightAware ADS-B
Mon 07:04:58 AM 50.0380 8.5490 243° Southwest 32 37 61 Level FlightAware ADS-B
Mon 07:05:26 AM 50.0370 8.5470 232° Southwest 34 39 65 Level FlightAware ADS-B
Mon 07:05:54 AM 50.0370 8.5440 270° West 33 38 69 Level FlightAware ADS-B
Mon 07:06:16 AM 50.0360 8.5420 232° Southwest 32 37 74 Level FlightAware ADS-B
Mon 07:06:54 AM 50.0350 8.5380 249° West 15 17 78 Level FlightAware ADS-B
Mon 07:07:16 AM 50.0350 8.5360 270° West 30 35 87 Level FlightAware ADS-B
Mon 07:07:43 AM 50.0340 8.5340 232° Southwest 25 29 93 Level FlightAware ADS-B
Mon 07:08:00 AM 50.0340 8.5330 270° West 20 23 101 Level FlightAware ADS-B
Mon 07:08:28 AM 50.0330 8.5340 147° Southeast 25 29 108 Level FlightAware ADS-B
Mon 07:09:34 AM 50.0330 8.5360 90° East 120 Level FlightAware ADS-B
Mon 07:11:54 AM 50.0330 8.5370 300° West 38 44 162 Level FlightAware ADS-B
Mon 07:12:00 AM 50.1992 8.1687 300° West  Level FlightAware Approximate
Mon 07:12:23 AM 50.0370 8.5550 71° East 145 167  Level FlightAware ADS-B
Mon 07:12:39 AM 50.0420 8.5740 68° East 180 207 500 2,250 Climbing FlightAware ADS-B
Mon 07:13:03 AM 50.0490 8.6040 70° East 180 207 1,500 2,222 Climbing FlightAware ADS-B
Mon 07:13:33 AM 50.0570 8.6410 71° East 184 212 2,500 1,957 Climbing FlightAware ADS-B
Mon 07:13:49 AM 50.0620 8.6620 70° East 188 216 3,000 1,364 Climbing FlightAware ADS-B
Mon 07:14:17 AM 50.0700 8.7000 72° East 213 245 3,500 1,200 Climbing FlightAware ADS-B
Mon 07:14:29 AM 50.0760 8.7170 61° Northeast 221 254 3,800 1,000 Climbing FlightAware ADS-B
Mon 07:14:41 AM 50.0860 8.7290 38° Northeast 236 272 3,900 1,071 Climbing FlightAware ADS-B
Mon 07:14:57 AM 50.1030 8.7390 21° North 250 288 4,300 1,773 Climbing FlightAware ADS-B
Mon 07:15:25 AM 50.1320 8.7540 18° North 259 298 5,200 1,821 Climbing FlightAware ADS-B
Mon 07:15:53 AM 50.1660 8.7740 21° North 272 313 6,000 1,636 Climbing FlightAware ADS-B
Mon 07:16:09 AM 50.1860 8.7870 23° Northeast 287 330 6,400 1,256 Climbing FlightAware ADS-B
Mon 07:16:36 AM 50.2200 8.8100 23° Northeast 311 358 6,900 941 Climbing FlightAware ADS-B
Mon 07:17:00 AM 50.2540 8.8230 14° North 335 386 7,200 1,179 Climbing FlightAware ADS-B
Mon 07:17:32 AM 50.2990 8.7970 340° North 339 390 8,000 1,636 Climbing FlightAware ADS-B
Mon 07:17:44 AM 50.3120 8.7710 308° West 336 387 8,400 1,714 Climbing FlightAware ADS-B
Mon 07:18:00 AM 50.3220 8.7350 294° West 341 392 8,800 1,500 Climbing FlightAware ADS-B
Mon 07:18:12 AM 50.3260 8.7040 281° West 349 402 9,100 1,800 Climbing FlightAware ADS-B
Mon 07:18:40 AM 50.3340 8.6380 281° West 357 411 10,000 2,108 Climbing FlightAware ADS-B
Mon 07:19:26 AM 50.3540 8.5160 284° West 367 422 11,700 2,188 Climbing FlightAware ADS-B
Mon 07:20:05 AM 50.3710 8.4210 286° West 372 428 13,100 1,926 Climbing FlightAware ADS-B
Mon 07:20:47 AM 50.3730 8.3090 272° West 372 428 14,300 1,732 Climbing FlightAware ADS-B
Mon 07:21:42 AM 50.3750 8.1610 271° West 394 453 15,900 1,740 Climbing FlightAware ADS-B
Mon 07:22:27 AM 50.4230 8.0530 305° West 406 467 17,200 2,047 Climbing FlightAware ADS-B
Mon 07:23:07 AM 50.4670 7.9570 306° West 393 452 18,800 1,950 Climbing FlightAware ADS-B
Mon 07:23:47 AM 50.5090 7.8650 306° West 398 458 19,800 1,575 Climbing FlightAware ADS-B
Mon 07:24:27 AM 50.5600 7.7760 312° West 407 468 20,900 1,482 Climbing FlightAware ADS-B
Mon 07:25:12 AM 50.6220 7.6800 316° Northwest 418 481 21,900 1,395 Climbing FlightAware ADS-B
Mon 07:25:53 AM 50.6720 7.5980 314° West 417 480 22,900 1,425 Climbing FlightAware ADS-B
Mon 07:26:32 AM 50.7260 7.5090 314° West 423 487 23,800 1,286 Climbing FlightAware ADS-B
Mon 07:27:17 AM 50.7870 7.4080 314° West 423 487 24,700 1,133 Climbing FlightAware ADS-B
Mon 07:28:02 AM 50.8460 7.3040 312° West 426 490 25,500 1,129 Climbing FlightAware ADS-B
Mon 07:28:42 AM 50.8920 7.1900 303° West 427 491 26,300 988 Climbing FlightAware ADS-B
Mon 07:29:27 AM 50.9380 7.0660 301° West 442 509 26,900 847 Climbing FlightAware ADS-B
Mon 07:30:07 AM 50.9790 6.9550 300° West 449 517 27,500 975 Climbing FlightAware ADS-B
Mon 07:30:47 AM 51.0210 6.8400 300° West 455 524 28,200 847 Climbing FlightAware ADS-B
Mon 07:31:32 AM 51.0680 6.7100 300° West 459 528 28,700 776 Climbing FlightAware ADS-B
Mon 07:32:12 AM 51.1120 6.5870 300° West 465 535 29,300 847 Climbing FlightAware ADS-B
Mon 07:32:57 AM 51.1560 6.4660 300° West 471 542 29,900 847 Climbing FlightAware ADS-B
Mon 07:33:37 AM 51.2050 6.3260 299° West 480 552 30,500 1,000 Climbing FlightAware ADS-B
Mon 07:34:21 AM 51.2530 6.1930 300° West 479 551 31,300 1,500 Climbing FlightAware ADS-B
Mon 07:35:01 AM 51.2970 6.0750 301° West 468 539 32,600 1,765 Climbing FlightAware ADS-B
Mon 07:35:46 AM 51.3470 5.9490 302° West 455 524 33,800 966 Climbing FlightAware ADS-B
Mon 07:36:28 AM 51.3940 5.8310 303° West 453 521 34,000 146 Climbing FlightAware ADS-B
Mon 07:37:08 AM 51.4370 5.7230 303° West 453 521 34,000  Level FlightAware ADS-B
Mon 07:37:49 AM 51.4860 5.6000 303° West 454 522 34,000  Level FlightAware ADS-B
Mon 07:38:32 AM 51.5320 5.4810 302° West 454 522 34,000  Level FlightAware ADS-B
Mon 07:39:12 AM 51.5770 5.3650 302° West 454 522 34,000  Level FlightAware ADS-B
Mon 07:39:14 AM 51.5776 5.3497 302° West 480 552 34,000  Level FlightAware UK
Mon 07:39:56 AM 51.6270 5.2380 302° West 454 522 34,000 -71 Level FlightAware ADS-B
Mon 07:40:38 AM 51.6775 5.1155 302° West 484 557 33,900  Descending FlightAware UK
Mon 07:40:38 AM 51.6740 5.1180 302° West 454 522 34,000 200 Climbing FlightAware ADS-B
Mon 07:41:08 AM 51.7111 5.0298 302° West 480 552 34,000  Level FlightAware UK
Mon 07:41:18 AM 51.7180 5.0040 302° West 455 524 34,000 -125 Level FlightAware ADS-B
Mon 07:41:56 AM 51.7627 4.8900 302° West 478 550 33,900  Descending FlightAware UK
Mon 07:42:02 AM 51.7690 4.8750 302° West 456 525 34,000 200 Climbing FlightAware ADS-B
Mon 07:42:26 AM 51.7949 4.8023 302° West 476 548 34,000  Level FlightAware UK
Mon 07:42:41 AM 51.8130 4.7640 302° West 457 526 34,000  Level FlightAware ADS-B
Mon 07:43:20 AM 51.8558 4.6466 302° West 482 555 34,000  Level FlightAware UK
Mon 07:43:25 AM 51.8630 4.6370 302° West 458 527 34,000  Level FlightAware ADS-B
Mon 07:44:09 AM 51.9120 4.5100 302° West 457 526 34,000  Level FlightAware ADS-B
Mon 07:44:37 AM 51.9459 4.4232 302° West 484 557 34,000  Level FlightAware UK
Mon 07:44:47 AM 51.9550 4.3990 302° West 457 526 34,000  Level FlightAware ADS-B
Mon 07:45:07 AM 51.9805 4.3373 302° West 482 555 34,000  Level FlightAware UK
Mon 07:45:34 AM 52.0200 4.2710 302° West 469 540 34,000  Level FlightAware ADS-B
Mon 07:45:49 AM 52.0433 4.2303 302° West 480 552 34,000  Level FlightAware UK
Mon 07:46:14 AM 52.0790 4.1680 302° West 468 539 34,000  Level FlightAware ADS-B
Mon 07:46:54 AM 52.1460 4.0750 320° Northwest 487 560 34,000  Level FlightAware ADS-B
Mon 07:47:13 AM 52.1851 4.0406 320° Northwest 480 552 34,000  Level FlightAware UK
Mon 07:47:38 AM 52.2380 4.0100 320° Northwest 503 579 34,000  Level FlightAware ADS-B
Mon 07:48:34 AM 52.3630 3.9400 341° North 504 580 34,000  Level FlightAware ADS-B
Mon 07:49:14 AM 52.4500 3.8910 341° North 505 581 34,000  Level FlightAware ADS-B
Mon 07:49:56 AM 52.5410 3.8400 341° North 505 581 34,000 -102 Level FlightAware ADS-B
Mon 07:50:13 AM 52.5817 3.8173 341° North 480 552 33,900  Descending FlightAware UK
Mon 07:50:38 AM 52.6270 3.7900 341° North 497 572 34,000 86 Climbing FlightAware ADS-B
Mon 07:51:23 AM 52.7290 3.7320 341° North 498 573 34,000  Level FlightAware ADS-B
Mon 07:52:03 AM 52.8190 3.6800 341° North 498 573 34,000  Level FlightAware ADS-B
Mon 07:52:19 AM 52.8595 3.6576 341° North 480 552 34,000  Level FlightAware UK
Mon 07:52:49 AM 52.9256 3.6194 341° North 482 555 34,000  Level FlightAware UK
Mon 07:52:58 AM 52.9360 3.6130 341° North 497 572 34,000  Level FlightAware ADS-B
Mon 07:53:31 AM 53.0184 3.5658 341° North 478 550 34,000  Level FlightAware UK
Mon 07:53:36 AM 53.0230 3.5620 341° North 504 580 34,000  Level FlightAware ADS-B
Mon 07:54:07 AM 53.0975 3.5199 341° North 478 550 34,000  Level FlightAware UK
Mon 07:54:22 AM 53.1190 3.5060 341° North 504 580 34,000  Level FlightAware ADS-B
Mon 07:54:43 AM 53.1759 3.4738 341° North 478 550 34,000  Level FlightAware UK
Mon 07:55:04 AM 53.2110 3.4480 341° North 494 568 34,000  Level FlightAware ADS-B
Mon 07:55:44 AM 53.2770 3.3560 320° Northwest 462 532 34,000 -80 Level FlightAware ADS-B
Mon 07:56:19 AM 53.3228 3.2424 320° Northwest 478 550 33,900  Descending FlightAware UK
Mon 07:56:28 AM 53.3320 3.2160 320° Northwest 452 520 34,000  Climbing FlightAware ADS-B
Mon 07:57:07 AM 53.3766 3.1001 320° Northwest 480 552 33,900 -74 Descending FlightAware UK
Mon 07:57:08 AM 53.3710 3.1130 320° Northwest 34,000  Climbing FlightAware ADS-B
Mon 07:57:49 AM 53.4235 2.9756 320° Northwest 480 552 33,900  Descending FlightAware UK
Mon 07:58:19 AM 53.4540 2.8940 320° Northwest 453 521 34,000 59 Climbing FlightAware ADS-B
Mon 07:59:31 AM 53.5360 2.6750 302° West 452 520 34,000 -56 Level FlightAware ADS-B
Mon 08:00:07 AM 53.5779 2.5663 302° West 486 559 33,900  Descending FlightAware UK
Mon 08:00:13 AM 53.5830 2.5510 302° West 450 518 34,000  Climbing FlightAware ADS-B
Mon 08:00:37 AM 53.6110 2.4770 302° West 484 557 33,900  Descending FlightAware UK
Mon 08:00:55 AM 53.6290 2.4260 302° West 449 517 34,000  Climbing FlightAware ADS-B
Mon 08:01:13 AM 53.6503 2.3708 302° West 480 552 33,900  Descending FlightAware UK
Mon 08:01:39 AM 53.6760 2.3000 302° West 448 516 34,000 91 Climbing FlightAware ADS-B
Mon 08:02:19 AM 53.7224 2.1754 302° West 480 552 34,000  Level FlightAware UK
Mon 08:02:21 AM 53.7240 2.1700 302° West 449 517 34,000 -167 Level FlightAware ADS-B
Mon 08:02:55 AM 53.7610 2.0688 302° West 480 552 33,900  Descending FlightAware UK
Mon 08:03:00 AM 53.7660 2.0550 302° West 449 517 34,000 128 Climbing FlightAware ADS-B
Mon 08:03:42 AM 53.8090 1.9360 302° West 448 516 34,000 -140 Level FlightAware ADS-B
Mon 08:03:43 AM 53.8131 1.9259 302° West 480 552 33,900 -194 Descending FlightAware UK
Mon 08:04:13 AM 53.8456 1.8364 302° West 480 552 33,900 140 Level FlightAware UK
Mon 08:04:26 AM 53.8600 1.7970 302° West 447 514 34,000  Climbing FlightAware ADS-B
Mon 08:04:49 AM 53.8844 1.7295 302° West 478 550 33,900  Descending FlightAware UK
Mon 08:05:07 AM 53.9020 1.6790 302° West 448 516 34,000  Climbing FlightAware ADS-B
Mon 08:05:31 AM 53.9293 1.6037 302° West 476 548 33,900  Descending FlightAware UK
Mon 08:05:48 AM 53.9470 1.5530 302° West 449 517 34,000 100 Climbing FlightAware ADS-B
Mon 08:06:31 AM 53.9910 1.4310 302° West 450 518 34,000  Level FlightAware ADS-B
Mon 08:07:13 AM 54.0380 1.2990 301° West 451 519 34,000  Level FlightAware ADS-B
Mon 08:07:56 AM 54.0850 1.1660 301° West 453 521 34,000  Level FlightAware ADS-B
Mon 08:08:36 AM 54.1270 1.0470 301° West 454 522 34,000 -103 Level FlightAware ADS-B
Mon 08:08:54 AM 54.1480 0.9866 301° West 476 548 33,900  Descending FlightAware UK
Mon 08:09:20 AM 54.1750 0.9090 301° West 455 524 34,000 87 Climbing FlightAware ADS-B
Mon 08:10:03 AM 54.2210 0.7790 301° West 455 524 34,000  Level FlightAware ADS-B
Mon 08:10:24 AM 54.2448 0.7087 301° West 476 548 34,000  Level FlightAware UK
Mon 08:10:46 AM 54.2670 0.6450 301° West 456 525 34,000  Level FlightAware ADS-B
Mon 08:11:41 AM 54.3180 0.4960 300° West 456 525 34,000  Level FlightAware ADS-B
Mon 08:12:24 AM 54.3700 0.3440 300° West 456 525 34,000  Level FlightAware ADS-B
Mon 08:13:04 AM 54.4120 0.2220 301° West 457 526 34,000  Level FlightAware ADS-B
Mon 08:13:42 AM 54.4548 0.0940 301° West 480 552 34,000  Level FlightAware UK
Mon 08:13:52 AM 54.4660 0.0630 301° West 456 525 34,000  Level FlightAware ADS-B
Mon 08:14:12 AM 54.4864 0.0000 301° West 478 550 34,000  Level FlightAware UK
Mon 08:14:31 AM 54.5050 -0.0530 301° West 457 526 34,000  Level FlightAware ADS-B
Mon 08:15:09 AM 54.5470 -0.1790 300° West 456 525 34,000  Level FlightAware ADS-B
Mon 08:15:53 AM 54.5900 -0.3090 300° West 457 526 34,000  Level FlightAware ADS-B
Mon 08:16:39 AM 54.6390 -0.4590 299° West 456 525 34,000  Level FlightAware ADS-B
Mon 08:17:17 AM 54.6800 -0.5800 300° West 457 526 34,000  Level FlightAware ADS-B
Mon 08:18:01 AM 54.7250 -0.7200 299° West 458 527 34,000  Level FlightAware ADS-B
Mon 08:18:35 AM 54.7617 -0.8324 299° West 476 548 34,000  Level FlightAware UK
Mon 08:18:45 AM 54.7700 -0.8580 299° West 457 526 34,000  Level FlightAware ADS-B
Mon 08:19:17 AM 54.8033 -0.9681 299° West 478 550 34,000  Level FlightAware UK
Mon 08:19:25 AM 54.8100 -0.9900 299° West 457 526 34,000  Level FlightAware ADS-B
Mon 08:20:09 AM 54.8520 -1.1300 298° West 458 527 34,000  Level FlightAware ADS-B
Mon 08:20:49 AM 54.8920 -1.2590 298° West 456 525 34,000 -97 Level FlightAware ADS-B
Mon 08:21:11 AM 54.9151 -1.3365 298° West 480 552 33,900  Descending FlightAware UK
Mon 08:21:30 AM 54.9320 -1.3910 298° West 456 525 34,000  Climbing FlightAware ADS-B
Mon 08:22:05 AM 54.9676 -1.5108 298° West 480 552 33,900  Descending FlightAware UK
Mon 08:22:15 AM 54.9760 -1.5370 298° West 455 524 34,000  Climbing FlightAware ADS-B
Mon 08:22:35 AM 54.9967 -1.6079 298° West 478 550 33,900  Descending FlightAware UK
Mon 08:22:55 AM 55.0150 -1.6690 298° West 454 522 34,000  Climbing FlightAware ADS-B
Mon 08:23:23 AM 55.0430 -1.7635 298° West 480 552 33,900  Descending FlightAware UK
Mon 08:23:40 AM 55.0470 -1.7780 298° West 454 522 34,000  Climbing FlightAware ADS-B
Mon 08:23:58 AM 55.0772 -1.8791 298° West 484 557 33,900  Descending FlightAware UK
Mon 08:24:14 AM 55.0900 -1.9230 298° West 453 521 34,000  Climbing FlightAware ADS-B
Mon 08:24:40 AM 55.1174 -2.0153 298° West 484 557 33,900  Descending FlightAware UK
Mon 08:25:03 AM 55.1380 -2.0850 298° West 451 519 34,000  Climbing FlightAware ADS-B
Mon 08:25:22 AM 55.1572 -2.1514 298° West 482 555 33,900  Descending FlightAware UK
Mon 08:25:46 AM 55.1790 -2.2250 298° West 449 517 34,000 94 Climbing FlightAware ADS-B
Mon 08:26:26 AM 55.2160 -2.3530 297° West 449 517 34,000  Level FlightAware ADS-B
Mon 08:27:10 AM 55.2570 -2.4960 297° West 449 517 34,000 -88 Level FlightAware ADS-B
Mon 08:27:34 AM 55.2806 -2.5778 297° West 480 552 33,900  Descending FlightAware UK
Mon 08:27:47 AM 55.2910 -2.6120 297° West 445 512 34,000  Climbing FlightAware ADS-B
Mon 08:28:04 AM 55.3084 -2.6752 297° West 480 552 33,900  Descending FlightAware UK
Mon 08:28:32 AM 55.3330 -2.7610 297° West 445 512 34,000  Climbing FlightAware ADS-B
Mon 08:28:52 AM 55.3526 -2.8305 297° West 478 550 33,900  Descending FlightAware UK
Mon 08:29:12 AM 55.3680 -2.8850 297° West 445 512 34,000  Climbing FlightAware ADS-B
Mon 08:29:52 AM 55.4079 -3.0261 297° West 474 545 33,900  Descending FlightAware UK
Mon 08:29:53 AM 55.4070 -3.0240 297° West 446 513 34,000 130 Climbing FlightAware ADS-B
Mon 08:30:38 AM 55.4480 -3.1690 297° West 447 514 34,000  Level FlightAware ADS-B
Mon 08:31:19 AM 55.4840 -3.3000 296° West 453 521 34,000  Level FlightAware ADS-B
Mon 08:31:58 AM 55.5270 -3.4320 300° West 455 524 34,000 -97 Level FlightAware ADS-B
Mon 08:32:21 AM 55.5548 -3.5143 300° West 478 550 33,900  Descending FlightAware UK
Mon 08:32:37 AM 55.5700 -3.5580 300° West 461 531 34,000 98 Climbing FlightAware ADS-B
Mon 08:33:22 AM 55.6210 -3.7050 302° West 462 532 34,000  Level FlightAware ADS-B
Mon 08:34:07 AM 55.6690 -3.8470 301° West 463 533 34,000  Level FlightAware ADS-B
Mon 08:34:42 AM 55.7070 -3.9570 302° West 465 535 34,000 -88 Level FlightAware ADS-B
Mon 08:35:15 AM 55.7468 -4.0766 302° West 484 557 33,900  Descending FlightAware UK
Mon 08:35:32 AM 55.7640 -4.1260 302° West 460 529 34,000  Climbing FlightAware ADS-B
Mon 08:35:51 AM 55.7863 -4.1941 302° West 488 562 33,900  Descending FlightAware UK
Mon 08:36:12 AM 55.8070 -4.2550 302° West 458 527 34,000 98 Climbing FlightAware ADS-B
Mon 08:36:52 AM 55.8510 -4.3870 301° West 458 527 34,000  Level FlightAware ADS-B
Mon 08:37:09 AM 55.8703 -4.4486 301° West 480 552 34,000  Level FlightAware UK
Mon 08:37:39 AM 55.8989 -4.5505 297° West 478 550 34,000  Level FlightAware UK
Mon 08:38:04 AM 55.9190 -4.6240 297° West 464 534 34,000 -91 Level FlightAware ADS-B
Mon 08:38:45 AM 55.9599 -4.7782 297° West 482 555 33,900  Descending FlightAware UK
Mon 08:38:46 AM 55.9580 -4.7710 297° West 465 535 34,000  Climbing FlightAware ADS-B
Mon 08:39:21 AM 55.9929 -4.9027 297° West 480 552 33,900  Descending FlightAware UK
Mon 08:39:27 AM 55.9960 -4.9130 297° West 466 536 34,000 143 Climbing FlightAware ADS-B
Mon 08:40:03 AM 56.0315 -5.0486 297° West 482 555 34,000  Level FlightAware UK
Mon 08:40:10 AM 56.0320 -5.0530 297° West 467 537 34,000  Level FlightAware ADS-B
Mon 08:40:57 AM 56.0805 -5.2364 297° West 484 557 34,000 -72 Level FlightAware UK
Mon 08:41:33 AM 56.1135 -5.3622 295° West 486 559 33,900  Descending FlightAware UK
Mon 08:41:34 AM 56.1100 -5.3470 295° West 466 536 34,000 429 Climbing FlightAware ADS-B
Mon 08:42:15 AM 56.1515 -5.5091 295° West 484 557 34,200 171 Climbing FlightAware UK
Mon 08:42:44 AM 56.1490 -5.4990 295° West 464 534 34,200 636 Level FlightAware ADS-B
Mon 08:43:21 AM 56.2103 -5.7385 295° West 486 559 34,900 814 Climbing FlightAware UK
Mon 08:43:43 AM 56.2270 -5.8030 295° West 464 534 35,000 98 Climbing FlightAware ADS-B
Mon 08:44:22 AM 56.2600 -5.9360 294° West 463 533 35,000 -81 Level FlightAware ADS-B
Mon 08:44:57 AM 56.2954 -6.0742 294° West 490 564 34,900  Descending FlightAware UK
Mon 08:45:02 AM 56.2940 -6.0670 294° West 461 531 35,000  Climbing FlightAware ADS-B
Mon 08:45:39 AM 56.3318 -6.2202 294° West 490 564 34,900  Descending FlightAware UK
Mon 08:45:43 AM 56.3200 -6.1710 294° West 456 525 35,000  Climbing FlightAware ADS-B
Mon 08:46:15 AM 56.3628 -6.3442 294° West 492 566 34,900  Descending FlightAware UK
Mon 08:46:26 AM 56.3710 -6.3770 294° West 452 520 35,000  Climbing FlightAware ADS-B
Mon 08:46:45 AM 56.3885 -6.4479 294° West 490 564 34,900  Descending FlightAware UK
Mon 08:47:10 AM 56.4090 -6.5320 294° West 449 517 35,000  Climbing FlightAware ADS-B
Mon 08:47:15 AM 56.4141 -6.5510 294° West 488 562 34,900  Descending FlightAware UK
Mon 08:47:56 AM 56.4480 -6.6890 294° West 450 518 35,000 83 Climbing FlightAware ADS-B
Mon 08:48:27 AM 56.4745 -6.7979 294° West 486 559 35,000  Level FlightAware UK
Mon 08:48:36 AM 56.4800 -6.8230 294° West 448 516 35,000  Level FlightAware ADS-B
Mon 08:48:57 AM 56.4973 -6.9021 294° West 488 562 35,000  Level FlightAware UK
Mon 08:49:21 AM 56.5120 -6.9820 294° West 446 513 35,000  Level FlightAware ADS-B
Mon 08:49:57 AM 56.5359 -7.1158 294° West 486 559 35,000  Level FlightAware UK
Mon 08:50:01 AM 56.5360 -7.1180 294° West 444 511 35,000 -200 Level FlightAware ADS-B
Mon 08:50:27 AM 56.5539 -7.2229 294° West 486 559 34,900  Descending FlightAware UK
Mon 08:50:37 AM 56.5580 -7.2440 294° West 444 511 35,000  Climbing FlightAware ADS-B
Mon 08:50:57 AM 56.5723 -7.3291 294° West 486 559 34,900  Descending FlightAware UK
Mon 08:51:26 AM 56.5890 -7.4260 294° West 441 507 35,000 100 Climbing FlightAware ADS-B
Mon 08:51:57 AM 56.6087 -7.5401 294° West 486 559 35,000  Level FlightAware UK
Mon 08:52:06 AM 56.6130 -7.5630 294° West 439 505 35,000 -171 Level FlightAware ADS-B
Mon 08:52:32 AM 56.6301 -7.6655 294° West 484 557 34,900  Descending FlightAware UK
Mon 08:52:44 AM 56.6360 -7.7000 294° West 436 502 35,000 200 Climbing FlightAware ADS-B
Mon 08:53:02 AM 56.6479 -7.7700 294° West 486 559 35,000  Level FlightAware UK
Mon 08:53:29 AM 56.6620 -7.8550 287° West 433 498 35,000  Level FlightAware ADS-B
Mon 08:53:32 AM 56.6652 -7.8742 287° West 490 564 35,000  Level FlightAware UK
Mon 08:54:02 AM 56.6825 -7.9777 287° West 482 555 35,000  Level FlightAware UK
Mon 08:54:09 AM 56.6850 -7.9960 287° West 426 490 35,000  Level FlightAware ADS-B
Mon 08:54:32 AM 56.6996 -8.0807 287° West 480 552 35,000  Level FlightAware UK
Mon 08:54:54 AM 56.7110 -8.1490 287° West 424 488 35,000  Level FlightAware ADS-B
Mon 08:55:32 AM 56.7336 -8.2864 287° West 478 550 35,000  Level FlightAware UK
Mon 08:55:39 AM 56.7370 -8.3060 287° West 425 489 35,000  Level FlightAware ADS-B
Mon 08:56:02 AM 56.7505 -8.3895 287° West 480 552 35,000  Level FlightAware UK
Mon 08:56:19 AM 56.7580 -8.4400 287° West 425 489 35,000  Level FlightAware ADS-B
Mon 08:56:59 AM 56.7810 -8.5780 287° West 423 487 35,000  Level FlightAware ADS-B
Mon 08:57:32 AM 56.8001 -8.6990 287° West 482 555 35,000  Level FlightAware UK
Mon 08:57:44 AM 56.8060 -8.7350 287° West 423 487 35,000  Level FlightAware ADS-B
Mon 08:58:02 AM 56.8166 -8.8021 287° West 484 557 35,000  Level FlightAware UK
Mon 08:58:25 AM 56.8270 -8.8690 287° West 424 488 35,000  Level FlightAware ADS-B
Mon 08:59:19 AM 56.8560 -9.0540 286° West 420 483 35,000  Level FlightAware ADS-B
Mon 09:00:21 AM 56.8840 -9.2410 285° West 417 480 35,000  Level FlightAware ADS-B
Mon 09:00:59 AM 56.9090 -9.3980 286° West 413 475 35,000  Level FlightAware ADS-B
Mon 09:01:56 AM 56.9340 -9.5620 286° West 412 474 35,000  Level FlightAware ADS-B
Mon 09:02:30 AM 56.9520 -9.6830 285° West 409 471 35,000  Level FlightAware ADS-B
Mon 09:03:20 AM 56.9710 -9.8260 284° West 409 471 35,000  Level FlightAware ADS-B
Mon 09:03:56 AM 56.9850 -9.9290 284° West 409 471 35,000  Level FlightAware ADS-B
Mon 09:04:44 AM 57.0040 -10.0670 284° West 409 471 35,000  Level FlightAware ADS-B
Mon 09:05:20 AM 57.0180 -10.1700 284° West 409 471 35,000  Level FlightAware ADS-B
Mon 09:06:10 AM 57.0370 -10.3130 284° West 409 471 35,000  Level FlightAware ADS-B
Mon 09:06:47 AM 57.0510 -10.4190 284° West 409 471 35,000  Level FlightAware ADS-B
Mon 09:09:00 AM 57.1330 -10.9038 287° West  Level Estimated
Mon 09:10:00 AM 57.1693 -11.1231 287° West  Level Estimated
Mon 09:11:00 AM 57.2053 -11.3430 287° West  Level Estimated
Mon 09:12:00 AM 57.2409 -11.5632 287° West  Level Estimated
Mon 09:13:00 AM 57.2761 -11.7839 287° West  Level Estimated
Mon 09:14:00 AM 57.3109 -12.0050 286° West  Level Estimated
Mon 09:15:00 AM 57.3453 -12.2265 286° West  Level Estimated
Mon 09:16:00 AM 57.3794 -12.4484 286° West  Level Estimated
Mon 09:17:00 AM 57.4130 -12.6707 286° West  Level Estimated
Mon 09:18:00 AM 57.4463 -12.8934 286° West  Level Estimated
Mon 09:19:00 AM 57.4792 -13.1166 285° West  Level Estimated
Mon 09:20:00 AM 57.5116 -13.3401 285° West  Level Estimated
Mon 09:21:00 AM 57.5437 -13.5641 285° West  Level Estimated
Mon 09:22:00 AM 57.5754 -13.7884 285° West  Level Estimated
Mon 09:23:00 AM 57.6067 -14.0131 285° West  Level Estimated
Mon 09:24:00 AM 57.6375 -14.2382 284° West  Level Estimated
Mon 09:25:00 AM 57.6680 -14.4637 284° West  Level Estimated
Mon 09:26:00 AM 57.6990 -14.6966 284° West  Level Estimated
Mon 09:27:00 AM 57.7296 -14.9299 284° West  Level Estimated
Mon 09:28:00 AM 57.7598 -15.1636 284° West  Level Estimated
Mon 09:29:00 AM 57.7895 -15.3978 283° West  Level Estimated
Mon 09:30:00 AM 57.8188 -15.6322 283° West  Level Estimated
Mon 09:31:00 AM 57.8476 -15.8671 283° West  Level Estimated
Mon 09:32:00 AM 57.8760 -16.1024 283° West  Level Estimated
Mon 09:33:00 AM 57.9040 -16.3380 283° West  Level Estimated
Mon 09:34:00 AM 57.9316 -16.5739 282° West  Level Estimated
Mon 09:35:00 AM 57.9587 -16.8103 282° West  Level Estimated
Mon 09:36:00 AM 57.9854 -17.0470 282° West  Level Estimated
Mon 09:37:00 AM 58.0116 -17.2840 282° West  Level Estimated
Mon 09:38:00 AM 58.0374 -17.5214 282° West  Level Estimated
Mon 09:39:00 AM 58.0627 -17.7591 281° West  Level Estimated
Mon 09:40:00 AM 58.0877 -17.9972 281° West  Level Estimated
Mon 09:41:00 AM 58.1121 -18.2356 281° West  Level Estimated
Mon 09:42:00 AM 58.1361 -18.4743 281° West  Level Estimated
Mon 09:43:00 AM 58.1597 -18.7133 281° West  Level Estimated
Mon 09:44:00 AM 58.1828 -18.9527 280° West  Level Estimated
Mon 09:45:00 AM 58.2055 -19.1923 280° West  Level Estimated
Mon 09:46:00 AM 58.2277 -19.4323 280° West  Level Estimated
Mon 09:47:00 AM 58.2495 -19.6725 280° West  Level Estimated
Mon 09:48:00 AM 58.2708 -19.9131 280° West  Level Estimated
Mon 09:49:00 AM 58.2917 -20.1539 279° West  Level Estimated
Mon 09:50:00 AM 58.3121 -20.3950 279° West  Level Estimated
Mon 09:51:00 AM 58.3321 -20.6364 279° West  Level Estimated
Mon 09:52:00 AM 58.3516 -20.8781 279° West  Level Estimated
Mon 09:52:00 AM 59.0000 -20.0000 285° West 477 549 35,000  Level ETMS Enhanced Traffic Management System
Mon 09:53:00 AM 58.3706 -21.1200 279° West  Level Estimated
Mon 09:54:00 AM 58.3889 -21.3587 278° West  Level Estimated
Mon 09:55:00 AM 58.4068 -21.5976 278° West  Level Estimated
Mon 09:56:00 AM 58.4243 -21.8368 278° West  Level Estimated
Mon 09:57:00 AM 58.4413 -22.0762 278° West  Level Estimated
Mon 09:58:00 AM 59.2029 -21.4969 284° West 477 549 35,000  Level FlightAware Transoceanic
Mon 09:59:00 AM 59.2351 -21.7481 284° West 477 549 35,000  Level FlightAware Transoceanic
Mon 10:00:00 AM 59.2667 -21.9998 284° West 477 549 35,000  Level FlightAware Transoceanic
Mon 10:01:00 AM 59.2979 -22.2519 283° West 477 549 35,000  Level FlightAware Transoceanic
Mon 10:02:00 AM 59.3286 -22.5045 283° West 477 549 35,000  Level FlightAware Transoceanic
Mon 10:03:00 AM 59.3588 -22.7575 283° West 477 549 35,000  Level FlightAware Transoceanic
Mon 10:04:00 AM 59.3885 -23.0110 283° West 477 549 35,000  Level FlightAware Transoceanic
Mon 10:05:00 AM 59.4177 -23.2649 283° West 477 549 35,000  Level FlightAware Transoceanic
Mon 10:06:00 AM 59.4464 -23.5193 282° West 477 549 35,000  Level FlightAware Transoceanic
Mon 10:07:00 AM 59.4746 -23.7741 282° West 477 549 35,000  Level FlightAware Transoceanic
Mon 10:08:00 AM 59.5023 -24.0293 282° West 477 549 35,000  Level FlightAware Transoceanic
Mon 10:09:00 AM 59.5295 -24.2849 282° West 477 549 35,000  Level FlightAware Transoceanic
Mon 10:10:00 AM 59.5563 -24.5409 282° West 477 549 35,000  Level FlightAware Transoceanic
Mon 10:11:00 AM 59.5825 -24.7974 281° West 477 549 35,000  Level FlightAware Transoceanic
Mon 10:12:00 AM 59.6082 -25.0542 281° West 477 549 35,000  Level FlightAware Transoceanic
Mon 10:13:00 AM 59.6334 -25.3114 281° West 477 549 35,000  Level FlightAware Transoceanic
Mon 10:14:00 AM 59.6581 -25.5690 281° West 477 549 35,000  Level FlightAware Transoceanic
Mon 10:15:00 AM 59.6824 -25.8270 280° West 477 549 35,000  Level FlightAware Transoceanic
Mon 10:16:00 AM 59.7061 -26.0854 280° West 477 549 35,000  Level FlightAware Transoceanic
Mon 10:17:00 AM 59.7293 -26.3441 280° West 477 549 35,000  Level FlightAware Transoceanic
Mon 10:18:00 AM 59.7519 -26.6031 280° West 477 549 35,000  Level FlightAware Transoceanic
Mon 10:19:00 AM 59.7741 -26.8626 280° West 477 549 35,000  Level FlightAware Transoceanic
Mon 10:20:00 AM 59.7958 -27.1223 279° West 477 549 35,000  Level FlightAware Transoceanic
Mon 10:21:00 AM 59.8169 -27.3824 279° West 477 549 35,000  Level FlightAware Transoceanic
Mon 10:22:00 AM 59.8376 -27.6428 279° West 477 549 35,000  Level FlightAware Transoceanic
Mon 10:23:00 AM 59.8577 -27.9035 279° West 477 549 35,000  Level FlightAware Transoceanic
Mon 10:24:00 AM 59.8773 -28.1646 278° West 477 549 35,000  Level FlightAware Transoceanic
Mon 10:25:00 AM 59.8964 -28.4259 278° West 477 549 35,000  Level FlightAware Transoceanic
Mon 10:26:00 AM 59.9150 -28.6876 278° West 477 549 35,000  Level FlightAware Transoceanic
Mon 10:27:00 AM 59.9330 -28.9495 278° West 477 549 35,000  Level FlightAware Transoceanic
Mon 10:28:00 AM 59.9505 -29.2117 277° West 477 549 35,000  Level FlightAware Transoceanic
Mon 10:29:00 AM 59.9675 -29.4742 277° West 477 549 35,000  Level FlightAware Transoceanic
Mon 10:30:00 AM 59.9840 -29.7370 277° West 477 549 35,000  Level FlightAware Transoceanic
Mon 10:31:00 AM 59.9993 -29.9880 277° West  Level FlightAware Approximate
Mon 10:32:00 AM 60.0140 -30.2393 277° West  Level FlightAware Approximate
Mon 10:33:00 AM 60.0310 -30.2204 286° West  Level FlightAware Approximate
Mon 10:34:00 AM 60.0648 -30.4645 286° West  Level FlightAware Approximate
Mon 10:35:00 AM 60.0982 -30.7091 285° West  Level FlightAware Approximate
Mon 10:36:00 AM 60.1311 -30.9542 285° West  Level FlightAware Approximate
Mon 10:37:00 AM 60.1636 -31.1998 285° West  Level FlightAware Approximate
Mon 10:38:00 AM 60.1956 -31.4458 285° West  Level FlightAware Approximate
Mon 10:39:00 AM 60.2271 -31.6923 285° West  Level FlightAware Approximate
Mon 10:40:00 AM 60.2582 -31.9393 284° West  Level FlightAware Approximate
Mon 10:41:00 AM 60.2888 -32.1868 284° West  Level FlightAware Approximate
Mon 10:42:00 AM 60.3190 -32.4347 284° West  Level FlightAware Approximate
Mon 10:43:00 AM 60.3487 -32.6831 284° West  Level FlightAware Approximate
Mon 10:44:00 AM 60.3780 -32.9320 283° West  Level FlightAware Approximate
Mon 10:45:00 AM 60.4067 -33.1813 283° West  Level FlightAware Approximate
Mon 10:46:00 AM 60.4351 -33.4310 283° West  Level FlightAware Approximate
Mon 10:47:00 AM 60.4629 -33.6811 283° West  Level FlightAware Approximate
Mon 10:48:00 AM 60.4903 -33.9317 283° West  Level FlightAware Approximate
Mon 10:49:00 AM 60.5172 -34.1827 282° West  Level FlightAware Approximate
Mon 10:50:00 AM 60.5436 -34.4341 282° West  Level FlightAware Approximate
Mon 10:51:00 AM 60.5696 -34.6859 282° West  Level FlightAware Approximate
Mon 10:52:00 AM 60.5951 -34.9381 282° West  Level FlightAware Approximate
Mon 10:52:53 AM 60.7167 -36.0000 280° West 520 598 35,000  Level Gander Center
Mon 10:53:00 AM 60.6201 -35.1908 282° West  Level FlightAware Approximate
Mon 10:53:53 AM 60.7333 -36.2667 277° West 520 598 35,000  Level Gander Center
Mon 10:54:00 AM 60.6446 -35.4438 281° West  Level FlightAware Approximate
Mon 10:54:53 AM 60.7833 -36.5667 289° West 520 598 35,000  Level Gander Center
Mon 10:55:00 AM 60.6687 -35.6971 281° West  Level FlightAware Approximate
Mon 10:55:53 AM 60.8000 -36.8500 277° West 520 598 35,000  Level Gander Center
Mon 10:56:00 AM 60.6922 -35.9509 281° West  Level FlightAware Approximate
Mon 10:56:53 AM 60.8333 -37.1333 284° West 520 598 35,000  Level Gander Center
Mon 10:57:00 AM 60.7154 -36.2050 281° West  Level FlightAware Approximate
Mon 10:57:53 AM 60.8500 -37.4167 277° West 520 598 35,000  Level Gander Center
Mon 10:58:00 AM 60.7380 -36.4595 280° West  Level FlightAware Approximate
Mon 10:58:53 AM 60.8667 -37.7167 277° West 520 598 35,000  Level Gander Center
Mon 10:59:53 AM 60.8833 -37.9833 277° West 520 598 35,000  Level Gander Center
Mon 11:00:53 AM 60.9167 -38.3000 282° West 520 598 35,000  Level Gander Center
Mon 11:01:53 AM 60.9333 -38.5667 277° West 520 598 35,000  Level Gander Center
Mon 11:02:53 AM 60.9500 -38.8667 277° West 520 598 35,000  Level Gander Center
Mon 11:03:53 AM 60.9667 -39.1500 277° West 510 587 35,000  Level Gander Center
Mon 11:04:53 AM 60.9833 -39.4167 277° West 510 587 35,000  Level Gander Center
Mon 11:05:53 AM 61.0000 -39.7333 276° West 510 587 35,000  Level Gander Center
Mon 11:06:53 AM 61.0333 -40.0000 285° West 510 587 35,000  Level Gander Center
Mon 11:07:53 AM 61.0333 -40.2833 270° West 510 587 35,000  Level Gander Center
Mon 11:08:53 AM 61.0500 -40.5833 277° West 510 587 35,000  Level Gander Center
Mon 11:09:53 AM 61.0667 -40.8667 277° West 510 587 35,000  Level Gander Center
Mon 11:10:53 AM 61.0667 -41.1500 270° West 510 587 35,000  Level Gander Center
Mon 11:11:53 AM 61.0667 -41.4333 270° West 510 587 35,000  Level Gander Center
Mon 11:12:53 AM 61.0833 -41.7333 277° West 510 587 35,000  Level Gander Center
Mon 11:13:53 AM 61.0833 -42.0167 270° West 510 587 35,000  Level Gander Center
Mon 11:14:53 AM 61.1000 -42.3000 277° West 510 587 35,000  Level Gander Center
Mon 11:15:53 AM 61.1000 -42.5833 270° West 510 587 35,000  Level Gander Center
Mon 11:16:53 AM 61.1000 -42.9000 270° West 510 587 35,000  Level Gander Center
Mon 11:17:53 AM 61.1000 -43.1833 270° West 510 587 35,000  Level Gander Center
Mon 11:18:53 AM 61.1167 -43.4667 277° West 510 587 35,000  Level Gander Center
Mon 11:19:53 AM 61.1167 -43.7333 270° West 510 587 35,000  Level Gander Center
Mon 11:20:53 AM 61.1167 -44.0500 270° West 510 587 35,000  Level Gander Center
Mon 11:21:53 AM 61.1167 -44.3333 270° West 510 587 35,000  Level Gander Center
Mon 11:22:53 AM 61.1167 -44.6167 270° West 510 587 35,000  Level Gander Center
Mon 11:23:53 AM 61.1167 -44.9333 270° West 520 598 35,000  Level Gander Center
Mon 11:24:53 AM 61.1167 -45.2167 270° West 520 598 35,000  Level Gander Center
Mon 11:25:53 AM 61.1167 -45.5333 270° West 520 598 35,000  Level Gander Center
Mon 11:26:53 AM 61.1167 -45.8167 270° West 520 598 35,000  Level Gander Center
Mon 11:27:53 AM 61.1167 -46.1000 270° West 510 587 35,000  Level Gander Center
Mon 11:28:53 AM 61.1167 -46.3833 270° West 510 587 35,000  Level Gander Center
Mon 11:29:53 AM 61.1167 -46.6833 270° West 510 587 35,000  Level Gander Center
Mon 11:30:53 AM 61.1000 -46.9667 263° West 510 587 35,000  Level Gander Center
Mon 11:31:53 AM 61.1000 -47.2500 270° West 510 587 35,000  Level Gander Center
Mon 11:32:53 AM 61.1000 -47.5667 270° West 510 587 35,000  Level Gander Center
Mon 11:33:53 AM 61.1000 -47.8500 270° West 510 587 35,000  Level Gander Center
Mon 11:34:53 AM 61.0833 -48.1333 263° West 510 587 35,000  Level Gander Center
Mon 11:35:53 AM 61.0667 -48.4500 264° West 520 598 35,000  Level Gander Center
Mon 11:36:53 AM 61.0500 -48.7333 263° West 510 587 35,000  Level Gander Center
Mon 11:37:53 AM 61.0500 -49.0500 270° West 510 587 35,000  Level Gander Center
Mon 11:38:53 AM 61.0500 -49.3333 270° West 510 587 35,000  Level Gander Center
Mon 11:39:53 AM 61.0333 -49.6167 263° West 510 587 35,000  Level Gander Center
Mon 11:40:53 AM 61.0167 -49.9000 263° West 510 587 35,000  Level Gander Center
Mon 11:41:53 AM 61.0167 -50.2167 270° West 510 587 35,000  Level Gander Center
Mon 11:42:53 AM 60.9833 -50.5000 256° West 510 587 35,000  Level Gander Center
Mon 11:43:53 AM 60.9667 -50.7833 263° West 510 587 35,000  Level Gander Center
Mon 11:44:53 AM 60.9667 -51.0500 270° West 510 587 35,000  Level Gander Center
Mon 11:45:53 AM 60.9333 -51.3500 257° West 510 587 35,000  Level Gander Center
Mon 11:46:53 AM 60.9167 -51.6167 263° West 510 587 35,000  Level Gander Center
Mon 11:47:53 AM 60.8833 -51.9000 257° West 510 587 35,000  Level Gander Center
Mon 11:48:53 AM 60.8667 -52.1833 263° West 500 575 35,000  Level Gander Center
Mon 11:49:21 AM 60.8667 -52.3167 270° West 500 575 35,000  Level Gander Center
Mon 11:50:21 AM 60.8500 -52.6000 263° West 500 575 35,000  Level Gander Center
Mon 11:51:21 AM 60.8167 -52.8833 257° West 500 575 35,000  Level Gander Center
Mon 11:51:53 AM 60.8000 -53.0167 256° West 500 575 35,000  Level Gander Center
Mon 11:52:53 AM 60.7667 -53.3000 257° West 500 575 35,000  Level Gander Center
Mon 11:53:21 AM 60.7667 -53.4500 270° West 500 575 35,000  Level Gander Center
Mon 11:54:21 AM 60.7500 -53.7167 263° West 500 575 35,000  Level Gander Center
Mon 11:55:21 AM 60.7333 -54.0000 263° West 500 575 35,000  Level Gander Center
Mon 11:55:53 AM 60.7000 -54.1500 246° West 500 575 35,000  Level Gander Center
Mon 11:56:53 AM 60.6833 -54.4167 263° West 500 575 35,000  Level Gander Center
Mon 11:57:21 AM 60.6667 -54.5500 256° West 500 575 35,000  Level Gander Center
Mon 11:57:53 AM 60.6667 -54.7000 270° West 500 575 35,000  Level Gander Center
Mon 11:58:53 AM 60.6167 -54.9667 249° West 500 575 35,000  Level Gander Center
Mon 11:59:21 AM 60.6167 -55.1167 270° West 500 575 35,000  Level Gander Center
Mon 12:00:53 PM 60.5667 -55.5333 256° West 500 575 35,000  Level Gander Center
Mon 12:01:21 PM 60.5500 -55.6667 256° West 500 575 35,000  Level Gander Center
Mon 12:02:21 PM 60.5333 -55.9333 263° West 500 575 35,000  Level Gander Center
Mon 12:03:21 PM 60.4833 -56.1833 248° West 500 575 35,000  Level Gander Center
Mon 12:04:21 PM 60.4667 -56.4500 263° West 500 575 35,000  Level Gander Center
Mon 12:04:53 PM 60.4500 -56.6000 257° West 500 575 35,000  Level Gander Center
Mon 12:05:21 PM 60.4500 -56.7667 270° West 510 587 35,000  Level Gander Center
Mon 12:05:53 PM 60.4167 -56.9000 243° Southwest 500 575 35,000  Level Gander Center
Mon 12:06:53 PM 60.3833 -57.1833 257° West 500 575 35,000  Level Gander Center
Mon 12:07:53 PM 60.3667 -57.4500 263° West 500 575 35,000  Level Gander Center
Mon 12:08:53 PM 60.3167 -57.7167 249° West 500 575 35,000  Level Gander Center
Mon 12:09:53 PM 60.3000 -58.0000 263° West 500 575 35,000  Level Gander Center
Mon 12:10:53 PM 60.2500 -58.2667 249° West 500 575 35,000  Level Gander Center
Mon 12:11:21 PM 60.2333 -58.3667 251° West 500 575 35,000  Level Gander Center
Mon 12:12:21 PM 60.2167 -58.6333 263° West 500 575 35,000  Level Gander Center
Mon 12:12:53 PM 60.2000 -58.7667 256° West 500 575 35,000  Level Gander Center
Mon 12:13:21 PM 60.1833 -58.9000 256° West 500 575 35,000  Level Gander Center
Mon 12:14:21 PM 60.1333 -59.1833 251° West 490 564 35,000  Level Gander Center
Mon 12:14:53 PM 60.1167 -59.3167 256° West 490 564 35,000  Level Gander Center
Mon 12:15:21 PM 60.1000 -59.4500 256° West 490 564 35,000  Level Gander Center
Mon 12:15:53 PM 60.0833 -59.5833 256° West 490 564 35,000  Level Gander Center
Mon 12:16:21 PM 60.0667 -59.6833 252° West 490 564 35,000  Level Gander Center
Mon 12:17:21 PM 60.0333 -59.9833 258° West 490 564 35,000  Level Gander Center
Mon 12:18:21 PM 60.0000 -60.2167 254° West 490 564 35,000  Level Gander Center
Mon 12:18:53 PM 59.9667 -60.3500 244° Southwest 490 564 35,000  Level Gander Center
Mon 12:19:21 PM 59.9500 -60.4833 256° West 490 564 35,000  Level Gander Center
Mon 12:19:53 PM 59.9167 -60.6167 244° Southwest 490 564 35,000  Level Gander Center
Mon 12:20:21 PM 59.9000 -60.7167 252° West 490 564 35,000  Level Gander Center
Mon 12:21:21 PM 59.8667 -60.9833 256° West 490 564 35,000  Level Gander Center
Mon 12:21:53 PM 59.8333 -61.1500 248° West 490 564 35,000 130 Level Gander Center
Mon 12:22:53 PM 59.8000 -61.3833 254° West 490 564 35,200 300 Climbing Gander Center
Mon 12:23:53 PM 59.7500 -61.6500 250° West 490 564 35,600 477 Climbing Gander Center
Mon 12:24:21 PM 59.7333 -61.7833 256° West 490 564 35,900 600 Climbing Gander Center
Mon 12:24:53 PM 59.7167 -61.9167 256° West 500 575 36,200 587 Climbing Gander Center
Mon 12:25:53 PM 59.6667 -62.1333 246° West 490 564 36,800 545 Climbing Gander Center
Mon 12:26:21 PM 59.6500 -62.2667 256° West 490 564 37,000 545 Climbing Gander Center
Mon 12:27:21 PM 59.6000 -62.5333 250° West 490 564 37,600 652 Climbing Gander Center
Mon 12:27:53 PM 59.5833 -62.6667 256° West 480 552 38,000 261 Climbing Gander Center
Mon 12:28:53 PM 59.5333 -62.9167 249° West 480 552 38,000  Level Gander Center
Mon 12:29:21 PM 59.5000 -63.0167 237° Southwest 480 552 38,000  Level Gander Center
Mon 12:29:53 PM 59.4833 -63.1500 256° West 480 552 38,000  Level Gander Center
Mon 12:30:53 PM 59.4333 -63.4167 250° West 490 564 38,000  Level Gander Center
Mon 12:31:53 PM 59.4000 -63.6667 255° West 480 552 38,000  Level Gander Center
Mon 12:32:21 PM 59.3833 -63.7667 252° West 480 552 38,000  Level Gander Center
Mon 12:32:48 PM 59.3500 -63.8167 217° Southwest 480 552 38,000  Level Montreal Center
Mon 12:33:21 PM 59.3333 -63.9833 259° West 480 552 38,000  Level Gander Center
Mon 12:34:21 PM 59.2667 -64.2500 244° Southwest 480 552 38,000  Level Gander Center
Mon 12:34:48 PM 59.2333 -64.2833 207° Southwest 480 552 38,000  Level Montreal Center
Mon 12:35:21 PM 59.1833 -64.4667 242° Southwest 480 552 38,000  Level Gander Center
Mon 12:36:21 PM 59.1167 -64.6500 235° Southwest 490 564 38,000  Level Gander Center
Mon 12:36:53 PM 59.0500 -64.7833 226° Southwest 490 564 38,000  Level Gander Center
Mon 12:37:53 PM 58.9833 -64.9667 235° Southwest 480 552 38,000  Level Gander Center
Mon 12:38:21 PM 58.9333 -65.0667 226° Southwest 490 564 38,000  Level Gander Center
Mon 12:38:53 PM 58.9000 -65.1833 241° Southwest 490 564 38,000  Level Gander Center
Mon 12:39:48 PM 58.8167 -65.3167 220° Southwest 480 552 38,000  Level Montreal Center
Mon 12:40:48 PM 58.7333 -65.5000 229° Southwest 480 552 38,000  Level Montreal Center
Mon 12:41:21 PM 58.6833 -65.6667 240° Southwest 490 564 38,000  Level Gander Center
Mon 12:41:48 PM 58.6500 -65.7333 226° Southwest 480 552 38,000  Level Montreal Center
Mon 12:42:48 PM 58.5500 -65.9167 224° Southwest 480 552 38,000  Level Montreal Center
Mon 12:43:48 PM 58.4667 -66.1000 229° Southwest 480 552 38,000  Level Montreal Center
Mon 12:44:21 PM 58.4333 -66.2833 251° West 490 564 38,000  Level Gander Center
Mon 12:44:53 PM 58.3667 -66.3667 213° Southwest 490 564 38,000  Level Gander Center
Mon 12:45:48 PM 58.3000 -66.5000 226° Southwest 480 552 38,000  Level Montreal Center
Mon 12:46:48 PM 58.2167 -66.6833 229° Southwest 490 564 38,000  Level Montreal Center
Mon 12:47:48 PM 58.1167 -66.9000 229° Southwest 490 564 38,000  Level Montreal Center
Mon 12:48:48 PM 58.0333 -67.0833 229° Southwest 490 564 38,000  Level Montreal Center
Mon 12:49:48 PM 57.9500 -67.2667 229° Southwest 490 564 38,000  Level Montreal Center
Mon 12:50:48 PM 57.8500 -67.4833 229° Southwest 490 564 38,000  Level Montreal Center
Mon 12:51:48 PM 57.7667 -67.6500 227° Southwest 490 564 38,000  Level Montreal Center
Mon 12:52:48 PM 57.6833 -67.8667 234° Southwest 490 564 38,000  Level Montreal Center
Mon 12:53:48 PM 57.5833 -68.0333 222° Southwest 490 564 38,000  Level Montreal Center
Mon 12:54:48 PM 57.5000 -68.2500 234° Southwest 490 564 38,000  Level Montreal Center
Mon 12:55:48 PM 57.4167 -68.4167 227° Southwest 490 564 38,000  Level Montreal Center
Mon 12:56:48 PM 57.3167 -68.6000 225° Southwest 490 564 38,000  Level Montreal Center
Mon 12:57:48 PM 57.2167 -68.8000 227° Southwest 490 564 38,000  Level Montreal Center
Mon 12:58:48 PM 57.1167 -69.0167 230° Southwest 490 564 38,000  Level Montreal Center
Mon 12:59:48 PM 57.0333 -69.1833 227° Southwest 480 552 38,000  Level Montreal Center
Mon 01:00:48 PM 56.9333 -69.3833 228° Southwest 490 564 38,000  Level Montreal Center
Mon 01:01:48 PM 56.8500 -69.5500 228° Southwest 490 564 38,000  Level Montreal Center
Mon 01:02:48 PM 56.7500 -69.7333 225° Southwest 490 564 38,000  Level Montreal Center
Mon 01:03:48 PM 56.6833 -69.9167 237° Southwest 490 564 38,000  Level Montreal Center
Mon 01:04:48 PM 56.5833 -70.0833 223° Southwest 490 564 38,000  Level Montreal Center
Mon 01:05:48 PM 56.5000 -70.2833 233° Southwest 490 564 38,000  Level Montreal Center
Mon 01:06:48 PM 56.4000 -70.4500 223° Southwest 490 564 38,000  Level Montreal Center
Mon 01:07:48 PM 56.3000 -70.6167 223° Southwest 480 552 38,000  Level Montreal Center
Mon 01:08:48 PM 56.2167 -70.8167 233° Southwest 480 552 38,000  Level Montreal Center
Mon 01:09:21 PM 56.1500 -70.9500 228° Southwest 490 564 38,000  Level Gander Center
Mon 01:09:48 PM 56.1167 -70.9833 209° Southwest 470 541 38,000  Level Montreal Center
Mon 01:10:48 PM 56.0167 -71.1333 220° Southwest 480 552 38,000  Level Montreal Center
Mon 01:11:48 PM 55.9333 -71.3333 233° Southwest 480 552 38,000  Level Montreal Center
Mon 01:12:48 PM 55.8333 -71.5000 223° Southwest 480 552 38,000  Level Montreal Center
Mon 01:13:48 PM 55.7333 -71.6500 220° Southwest 480 552 38,000  Level Montreal Center
Mon 01:14:48 PM 55.6500 -71.8500 234° Southwest 480 552 38,000  Level Montreal Center
Mon 01:15:48 PM 55.5500 -72.0333 226° Southwest 480 552 38,000  Level Montreal Center
Mon 01:16:48 PM 55.4500 -72.1833 220° Southwest 480 552 38,000  Level Montreal Center
Mon 01:17:48 PM 55.3500 -72.3500 223° Southwest 490 564 38,000  Level Montreal Center
Mon 01:18:48 PM 55.2667 -72.5333 231° Southwest 480 552 38,000  Level Montreal Center
Mon 01:19:48 PM 55.1667 -72.6833 221° Southwest 480 552 38,000  Level Montreal Center
Mon 01:20:48 PM 55.0667 -72.8500 224° Southwest 480 552 38,000  Level Montreal Center
Mon 01:21:48 PM 54.9667 -73.0333 227° Southwest 480 552 38,000  Level Montreal Center
Mon 01:22:48 PM 54.8667 -73.1833 221° Southwest 480 552 38,000  Level Montreal Center
Mon 01:23:48 PM 54.7833 -73.3333 226° Southwest 480 552 38,000  Level Montreal Center
Mon 01:24:48 PM 54.6833 -73.5167 227° Southwest 480 552 38,000  Level Montreal Center
Mon 01:25:48 PM 54.5833 -73.6667 221° Southwest 480 552 38,000  Level Montreal Center
Mon 01:26:48 PM 54.4833 -73.8500 227° Southwest 480 552 38,000  Level Montreal Center
Mon 01:27:48 PM 54.3833 -74.0000 221° Southwest 480 552 38,000  Level Montreal Center
Mon 01:28:48 PM 54.2833 -74.1667 224° Southwest 480 552 38,000  Level Montreal Center
Mon 01:29:48 PM 54.1833 -74.3167 221° Southwest 480 552 38,000  Level Montreal Center
Mon 01:30:48 PM 54.0833 -74.4667 221° Southwest 480 552 38,000  Level Montreal Center
Mon 01:31:48 PM 53.9833 -74.6500 227° Southwest 480 552 38,000  Level Montreal Center
Mon 01:32:48 PM 53.8833 -74.8000 222° Southwest 480 552 38,000  Level Montreal Center
Mon 01:33:48 PM 53.7833 -74.9333 218° Southwest 490 564 38,000  Level Montreal Center
Mon 01:34:48 PM 53.6833 -75.1167 227° Southwest 480 552 38,000  Level Montreal Center
Mon 01:35:48 PM 53.6000 -75.2500 224° Southwest 480 552 38,000  Level Montreal Center
Mon 01:36:48 PM 53.5000 -75.4000 222° Southwest 480 552 38,000  Level Montreal Center
Mon 01:37:48 PM 53.4000 -75.5667 225° Southwest 480 552 38,000  Level Montreal Center
Mon 01:38:48 PM 53.3000 -75.7167 222° Southwest 480 552 38,000  Level Montreal Center
Mon 01:39:48 PM 53.2000 -75.8500 219° Southwest 480 552 38,000  Level Montreal Center
Mon 01:40:48 PM 53.0833 -76.0167 221° Southwest 480 552 38,000  Level Montreal Center
Mon 01:41:48 PM 53.0000 -76.1667 227° Southwest 480 552 38,000  Level Montreal Center
Mon 01:42:48 PM 52.9000 -76.3333 225° Southwest 480 552 38,000  Level Montreal Center
Mon 01:43:48 PM 52.8000 -76.4667 219° Southwest 480 552 38,000  Level Montreal Center
Mon 01:44:48 PM 52.7000 -76.6000 219° Southwest 480 552 38,000  Level Montreal Center
Mon 01:45:48 PM 52.6000 -76.7667 225° Southwest 480 552 38,000  Level Montreal Center
Mon 01:46:48 PM 52.5000 -76.9000 219° Southwest 480 552 38,000  Level Montreal Center
Mon 01:47:48 PM 52.4000 -77.0667 226° Southwest 480 552 38,000  Level Montreal Center
Mon 01:48:48 PM 52.2833 -77.2000 215° Southwest 480 552 38,000  Level Montreal Center
Mon 01:49:48 PM 52.1833 -77.3333 219° Southwest 480 552 38,000  Level Montreal Center
Mon 01:55:30 PM 51.6210 -78.1370 219° Southwest 483 556 38,000  Level FlightAware ADS-B
Mon 01:56:21 PM 51.5380 -78.2500 220° Southwest 483 556 38,000  Level FlightAware ADS-B
Mon 01:57:06 PM 51.5350 -78.2540 220° Southwest 483 556 38,000  Level FlightAware ADS-B
Mon 01:57:51 PM 51.3770 -78.4680 220° Southwest 482 555 38,000  Level FlightAware ADS-B
Mon 01:58:39 PM 51.3010 -78.5700 220° Southwest 481 554 38,000  Level FlightAware ADS-B
Mon 01:59:37 PM 51.2590 -78.6260 220° Southwest 481 554 38,000  Level FlightAware ADS-B
Mon 02:00:22 PM 51.1220 -78.8090 220° Southwest 479 551 38,000  Level FlightAware ADS-B
Mon 02:01:00 PM 51.0590 -78.8930 220° Southwest 478 550 38,000  Level FlightAware ADS-B
Mon 02:01:47 PM 50.9810 -78.9960 220° Southwest 476 548 38,000  Level FlightAware ADS-B
Mon 02:02:27 PM 50.9080 -79.0910 219° Southwest 475 547 38,000  Level FlightAware ADS-B
Mon 02:03:07 PM 50.8410 -79.1780 219° Southwest 475 547 38,000  Level FlightAware ADS-B
Mon 02:03:49 PM 50.7790 -79.2590 220° Southwest 474 545 38,000  Level FlightAware ADS-B
Mon 02:04:37 PM 50.6910 -79.3740 220° Southwest 474 545 38,000  Level FlightAware ADS-B
Mon 02:05:16 PM 50.6260 -79.4570 219° Southwest 474 545 38,000  Level FlightAware ADS-B
Mon 02:06:00 PM 50.5500 -79.5550 219° Southwest 475 547 38,000  Level FlightAware ADS-B
Mon 02:06:52 PM 50.4630 -79.6670 219° Southwest 475 547 38,000  Level FlightAware ADS-B
Mon 02:07:33 PM 50.3940 -79.7540 219° Southwest 477 549 38,000  Level FlightAware ADS-B
Mon 02:08:24 PM 50.3130 -79.8580 219° Southwest 477 549 38,000  Level FlightAware ADS-B
Mon 02:09:13 PM 50.2220 -79.9720 219° Southwest 477 549 38,000  Level FlightAware ADS-B
Mon 02:09:52 PM 50.1630 -80.0470 219° Southwest 477 549 38,000  Level FlightAware ADS-B
Mon 02:10:48 PM 50.0610 -80.1730 218° Southwest 476 548 38,000  Level FlightAware ADS-B
Mon 02:12:01 PM 50.0220 -80.2230 219° Southwest 477 549 38,000  Level FlightAware ADS-B
Mon 02:12:49 PM 49.9520 -80.3110 219° Southwest 477 549 38,000  Level FlightAware ADS-B
Mon 02:13:24 PM 49.9010 -80.3750 219° Southwest 477 549 38,000  Level FlightAware ADS-B
Mon 02:14:03 PM 49.8440 -80.4470 219° Southwest 477 549 38,000  Level FlightAware ADS-B
Mon 02:14:52 PM 49.7730 -80.5360 219° Southwest 477 549 38,000  Level FlightAware ADS-B
Mon 02:15:28 PM 49.7200 -80.6020 219° Southwest 477 549 38,000  Level FlightAware ADS-B
Mon 02:16:16 PM 49.6500 -80.6900 219° Southwest 477 549 38,000  Level FlightAware ADS-B
Mon 02:16:53 PM 49.5960 -80.7570 219° Southwest 477 549 38,000  Level FlightAware ADS-B
Mon 02:17:40 PM 49.5280 -80.8430 219° Southwest 477 549 38,000  Level FlightAware ADS-B
Mon 02:18:16 PM 49.4750 -80.9080 219° Southwest 477 549 38,000  Level FlightAware ADS-B
Mon 02:19:04 PM 49.4050 -80.9950 219° Southwest 477 549 38,000  Level FlightAware ADS-B
Mon 02:19:40 PM 49.3530 -81.0600 219° Southwest 477 549 38,000  Level FlightAware ADS-B
Mon 02:20:26 PM 49.2860 -81.1440 219° Southwest 477 549 38,000  Level FlightAware ADS-B
Mon 02:21:26 PM 49.1980 -81.2520 219° Southwest 477 549 38,000  Level FlightAware ADS-B
Mon 02:21:48 PM 48.9167 -81.5667 219° Southwest 470 541 38,000  Level Montreal Center
Mon 02:22:24 PM 48.8500 -81.6333 213° Southwest 480 552 38,000  Level Toronto Center
Mon 02:23:24 PM 48.7500 -81.7333 213° Southwest 480 552 38,000  Level Toronto Center
Mon 02:24:24 PM 48.6333 -81.8667 217° Southwest 480 552 38,000  Level Toronto Center
Mon 02:25:24 PM 48.5333 -81.9667 214° Southwest 480 552 38,000  Level Toronto Center
Mon 02:26:24 PM 48.4167 -82.1167 220° Southwest 470 541 38,000  Level Toronto Center
Mon 02:27:24 PM 48.3167 -82.2333 218° Southwest 480 552 38,000  Level Toronto Center
Mon 02:28:24 PM 48.2000 -82.3500 214° Southwest 480 552 38,000  Level Toronto Center
Mon 02:29:24 PM 48.1167 -82.4833 227° Southwest 480 552 38,000  Level Toronto Center
Mon 02:30:24 PM 48.0000 -82.5667 206° Southwest 480 552 38,000  Level Toronto Center
Mon 02:31:24 PM 47.9000 -82.7167 225° Southwest 480 552 38,000  Level Toronto Center
Mon 02:32:24 PM 47.7833 -82.8333 214° Southwest 480 552 38,000  Level Toronto Center
Mon 02:33:24 PM 47.6833 -82.9500 218° Southwest 480 552 38,000  Level Toronto Center
Mon 02:38:40 PM 47.1390 -83.5480 218° Southwest 465 535 38,000  Level FlightAware ADS-B
Mon 02:39:21 PM 47.0670 -83.6260 216° Southwest 465 535 38,000  Level FlightAware ADS-B
Mon 02:39:49 PM 47.0190 -83.6770 216° Southwest 465 535 38,000  Level FlightAware ADS-B
Mon 02:40:35 PM 46.9380 -83.7630 216° Southwest 466 536 38,000  Level FlightAware ADS-B
Mon 02:41:15 PM 46.8690 -83.8360 216° Southwest 466 536 38,000  Level FlightAware ADS-B
Mon 02:41:43 PM 46.8200 -83.8880 216° Southwest 465 535 38,000  Level FlightAware ADS-B
Mon 02:42:26 PM 46.7460 -83.9660 216° Southwest 464 534 38,000  Level FlightAware ADS-B
Mon 02:43:07 PM 46.6730 -84.0420 216° Southwest 462 532 38,000  Level FlightAware ADS-B
Mon 02:43:47 PM 46.6040 -84.1150 216° Southwest 462 532 38,000  Level FlightAware ADS-B
Mon 02:44:31 PM 46.5290 -84.1930 216° Southwest 459 528 38,000  Level FlightAware ADS-B
Mon 02:45:01 PM 46.4770 -84.2470 216° Southwest 458 527 38,000  Level FlightAware ADS-B
Mon 02:45:41 PM 46.4050 -84.3120 212° Southwest 466 536 38,000  Level FlightAware ADS-B
Mon 02:46:22 PM 46.3200 -84.3490 197° South 476 548 38,000  Level FlightAware ADS-B
Mon 02:47:02 PM 46.2330 -84.3780 193° South 474 545 38,000  Level FlightAware ADS-B
Mon 02:47:45 PM 46.1520 -84.4050 193° South 473 544 38,000  Level FlightAware ADS-B
Mon 02:48:24 PM 46.0610 -84.4360 193° South 471 542 38,000  Level FlightAware ADS-B
Mon 02:49:10 PM 45.9620 -84.4700 193° South 470 541 38,000  Level FlightAware ADS-B
Mon 02:49:54 PM 45.8700 -84.5020 194° South 467 537 38,000  Level FlightAware ADS-B
Mon 02:50:34 PM 45.7850 -84.5310 193° South 466 536 38,000  Level FlightAware ADS-B
Mon 02:51:28 PM 45.6770 -84.5670 193° South 466 536 38,000  Level FlightAware ADS-B
Mon 02:52:00 PM 45.6050 -84.5920 194° South 465 535 38,000  Level FlightAware ADS-B
Mon 02:52:42 PM 45.5170 -84.6210 193° South 464 534 38,000  Level FlightAware ADS-B
Mon 02:53:22 PM 45.4340 -84.6490 193° South 463 533 38,000  Level FlightAware ADS-B
Mon 02:54:05 PM 45.3450 -84.6790 193° South 462 532 38,000  Level FlightAware ADS-B
Mon 02:54:48 PM 45.2580 -84.7080 193° South 461 531 38,000  Level FlightAware ADS-B
Mon 02:55:28 PM 45.1720 -84.7370 193° South 461 531 38,000  Level FlightAware ADS-B
Mon 02:56:12 PM 45.0840 -84.7660 193° South 460 529 38,000  Level FlightAware ADS-B
Mon 02:56:52 PM 45.0000 -84.7940 193° South 457 526 38,000  Level FlightAware ADS-B
Mon 02:57:34 PM 44.9110 -84.8230 193° South 455 524 38,000  Level FlightAware ADS-B
Mon 02:58:16 PM 44.8280 -84.8500 193° South 442 509 38,000  Level FlightAware ADS-B
Mon 02:58:58 PM 44.7460 -84.8770 193° South 439 505 38,000  Level FlightAware ADS-B
Mon 02:59:42 PM 44.6610 -84.9050 193° South 439 505 38,000  Level FlightAware ADS-B
Mon 03:00:21 PM 44.5830 -84.9310 193° South 438 504 38,000  Level FlightAware ADS-B
Mon 03:01:05 PM 44.4940 -84.9590 193° South 438 504 38,000  Level FlightAware ADS-B
Mon 03:01:48 PM 44.4100 -84.9870 193° South 437 503 38,000  Level FlightAware ADS-B
Mon 03:02:29 PM 44.3290 -85.0130 193° South 435 501 38,000  Level FlightAware ADS-B
Mon 03:03:07 PM 44.2540 -85.0370 193° South 435 501 38,000  Level FlightAware ADS-B
Mon 03:03:51 PM 44.1680 -85.0650 193° South 435 501 38,000  Level FlightAware ADS-B
Mon 03:04:33 PM 44.0850 -85.0910 193° South 434 499 38,000 -69 Level FlightAware ADS-B
Mon 03:05:18 PM 43.9980 -85.1190 193° South 433 498 37,900 -621 Descending FlightAware ADS-B
Mon 03:06:00 PM 43.9160 -85.1450 193° South 431 496 37,100 -1,725 Descending FlightAware ADS-B
Mon 03:06:38 PM 43.8420 -85.1690 193° South 432 497 35,600 -2,605 Descending FlightAware ADS-B
Mon 03:07:16 PM 43.7680 -85.1920 193° South 440 506 33,800 -2,400 Descending FlightAware ADS-B
Mon 03:08:03 PM 43.6830 -85.2190 193° South 451 519 32,200 -1,187 Descending FlightAware ADS-B
Mon 03:08:47 PM 43.5840 -85.2500 193° South 469 540 32,000 -169 Descending FlightAware ADS-B
Mon 03:09:14 PM 43.5240 -85.2690 193° South 467 537 32,000 -1,217 Level FlightAware ADS-B
Mon 03:09:56 PM 43.4350 -85.2960 192° South 458 527 30,600 -1,535 Descending FlightAware ADS-B
Mon 03:10:40 PM 43.3450 -85.3250 193° South 454 522 29,800 -1,059 Descending FlightAware ADS-B
Mon 03:11:38 PM 43.2330 -85.3590 192° South 436 502 28,800 -1,000 Descending FlightAware ADS-B
Mon 03:12:22 PM 43.1480 -85.3860 193° South 428 493 28,100 -1,373 Descending FlightAware ADS-B
Mon 03:13:01 PM 43.0710 -85.4100 193° South 420 483 26,900 -1,747 Descending FlightAware ADS-B
Mon 03:13:41 PM 42.9950 -85.4330 192° South 410 472 25,800 -1,341 Descending FlightAware ADS-B
Mon 03:14:26 PM 42.9130 -85.4580 193° South 400 460 25,000 -539 Descending FlightAware ADS-B
Mon 03:15:10 PM 42.8350 -85.4830 193° South 397 457 25,000  Level FlightAware ADS-B
Mon 03:15:23 PM 42.8140 -85.4960 204° Southwest 384 442 25,000  Level FlightAware ADS-B
Mon 03:15:38 PM 42.7920 -85.5220 221° Southwest 375 432 25,000  Level FlightAware ADS-B
Mon 03:16:05 PM 42.7710 -85.5790 243° Southwest 384 442 25,000  Level FlightAware ADS-B
Mon 03:16:44 PM 42.7550 -85.6700 257° West 391 450 25,000 -212 Level FlightAware ADS-B
Mon 03:17:30 PM 42.7360 -85.7790 257° West 387 445 24,700 -776 Descending FlightAware ADS-B
Mon 03:18:09 PM 42.7190 -85.8730 256° West 390 449 23,900 -1,518 Descending FlightAware ADS-B
Mon 03:18:53 PM 42.7010 -85.9720 256° West 375 432 22,600 -1,886 Descending FlightAware ADS-B
Mon 03:19:19 PM 42.6900 -86.0330 256° West 369 425 21,700 -2,057 Descending FlightAware ADS-B
Mon 03:20:03 PM 42.6720 -86.1300 256° West 356 410 20,200 -1,229 Descending FlightAware ADS-B
Mon 03:20:42 PM 42.6570 -86.2120 256° West 365 420 20,000 -209 Descending FlightAware ADS-B
Mon 03:21:29 PM 42.6370 -86.3180 256° West 365 420 19,900 -1,129 Descending FlightAware ADS-B
Mon 03:22:07 PM 42.6220 -86.4010 256° West 360 414 18,400 -2,354 Descending FlightAware ADS-B
Mon 03:22:48 PM 42.6050 -86.4890 255° West 358 412 16,800 -2,442 Descending FlightAware ADS-B
Mon 03:23:33 PM 42.5860 -86.5910 256° West 353 406 14,900 -2,325 Descending FlightAware ADS-B
Mon 03:24:08 PM 42.5730 -86.6610 256° West 348 400 13,700 -2,233 Descending FlightAware ADS-B
Mon 03:24:59 PM 42.5490 -86.7700 253° West 345 397 11,700 -2,308 Descending FlightAware ADS-B
Mon 03:25:39 PM 42.5260 -86.8530 249° West 340 391 10,200 -1,200 Descending FlightAware ADS-B
Mon 03:26:24 PM 42.5030 -86.9360 249° West 341 392 10,000 -140 Descending FlightAware ADS-B
Mon 03:27:05 PM 42.4800 -87.0210 250° West 341 392 10,000  Level FlightAware ADS-B
Mon 03:27:43 PM 42.4590 -87.0990 250° West 339 390 10,000  Level FlightAware ADS-B
Mon 03:28:30 PM 42.4340 -87.1890 249° West 302 348 10,000 -81 Level FlightAware ADS-B
Mon 03:28:57 PM 42.4220 -87.2340 250° West 278 320 9,900 -612 Descending FlightAware ADS-B
Mon 03:29:19 PM 42.4130 -87.2670 250° West 265 305 9,500 -1,571 Descending FlightAware ADS-B
Mon 03:29:39 PM 42.3970 -87.2950 232° Southwest 272 313 8,800 -2,200 Descending FlightAware ADS-B
Mon 03:29:49 PM 42.3850 -87.3030 206° Southwest 280 322 8,400 -2,077 Descending FlightAware ADS-B
Mon 03:30:05 PM 42.3660 -87.3060 187° South 287 330 7,900 -1,784 Descending FlightAware ADS-B
Mon 03:30:26 PM 42.3420 -87.3070 182° South 289 333 7,300 -1,527 Descending FlightAware ADS-B
Mon 03:31:00 PM 42.2920 -87.3090 182° South 282 325 6,500 -1,238 Descending FlightAware ADS-B
Mon 03:31:29 PM 42.2540 -87.3110 182° South 278 320 6,000 -667 Descending FlightAware ADS-B
Mon 03:31:45 PM 42.2330 -87.3120 182° South 278 320 6,000  Level FlightAware ADS-B
Mon 03:32:09 PM 42.2020 -87.3130 181° South 276 318 6,000  Level FlightAware ADS-B
Mon 03:32:28 PM 42.1790 -87.3140 182° South 275 316 6,000  Level FlightAware ADS-B
Mon 03:32:56 PM 42.1440 -87.3170 184° South 272 313 6,000  Level FlightAware ADS-B
Mon 03:33:19 PM 42.1150 -87.3190 183° South 273 314 6,000 -588 Level FlightAware ADS-B
Mon 03:33:47 PM 42.0780 -87.3210 182° South 271 312 5,500 -1,149 Descending FlightAware ADS-B
Mon 03:34:06 PM 42.0570 -87.3240 186° South 269 310 5,100 -1,071 Descending FlightAware ADS-B
Mon 03:34:15 PM 42.0480 -87.3280 198° South 266 306 5,000 -240 Descending FlightAware ADS-B
Mon 03:34:31 PM 42.0300 -87.3470 218° Southwest 263 303 5,000  Level FlightAware ADS-B
Mon 03:34:47 PM 42.0170 -87.3640 224° Southwest 261 300 5,000  Level FlightAware ADS-B
Mon 03:35:11 PM 41.9990 -87.3880 225° Southwest 260 299 5,000  Level FlightAware ADS-B
Mon 03:35:30 PM 41.9830 -87.4140 230° Southwest 249 287 5,000  Level FlightAware ADS-B
Mon 03:35:54 PM 41.9700 -87.4430 239° Southwest 221 254 5,000 -154 Level FlightAware ADS-B
Mon 03:36:09 PM 41.9690 -87.4650 267° West 211 243 4,900 -698 Descending FlightAware ADS-B
Mon 03:36:37 PM 41.9690 -87.5000 270° West 195 224 4,500 -900 Descending FlightAware ADS-B
Mon 03:36:49 PM 41.9690 -87.5130 270° West 188 216 4,300 -571 Descending FlightAware ADS-B
Mon 03:37:19 PM 41.9690 -87.5470 270° West 171 197 4,100 -450 Descending FlightAware ADS-B
Mon 03:37:29 PM 41.9690 -87.5570 270° West 168 193 4,000 -140 Descending FlightAware ADS-B
Mon 03:38:02 PM 41.9690 -87.5920 270° West 171 197 4,000  Level FlightAware ADS-B
Mon 03:38:29 PM 41.9690 -87.6210 270° West 170 196 4,000  Level FlightAware ADS-B
Mon 03:38:58 PM 41.9690 -87.6520 270° West 184 212 4,000 -423 Level FlightAware ADS-B
Mon 03:39:40 PM 41.9690 -87.7020 270° West 180 207 3,500 -771 Descending FlightAware ADS-B
Mon 03:40:08 PM 41.9690 -87.7330 270° West 177 204 3,100 -1,222 Descending FlightAware ADS-B
Mon 03:40:34 PM 41.9690 -87.7630 270° West 182 209 2,400 -1,245 Descending FlightAware ADS-B
Mon 03:41:01 PM 41.9690 -87.7910 270° West 170 196 2,000 -873 Descending FlightAware ADS-B
Mon 03:41:29 PM 41.9690 -87.8170 270° West 137 158 1,600 -778 Descending FlightAware ADS-B
Mon 03:41:55 PM 41.9690 -87.8400 270° West 130 150 1,300 -676 Descending FlightAware ADS-B
Mon 03:42:40 PM 41.9690 -87.8750 270° West 132 152 800 -667 Descending FlightAware ADS-B

Login

Don't have an account? Register now (free) for customized features, flight alerts, and more!